Time;durP1;ratioP1;P1;durP2;ratioP2;P2;SDS_P1;SDS_P2;PMS_P1;PMS_P2;Temp;Humidity;BMP_temperature;BMP_pressure;BME280_temperature;BME280_humidity;BME280_pressure;Samples;Min_cycle;Max_cycle;Signal;HPM_P1;HPM_P2
2023/04/25 00:00:19;;;;;;;32.58;1.80;;;;;;;22.31;49.43;98566.63;7311043;19;129339;-29
2023/04/25 00:02:46;;;;;;;30.58;1.73;;;;;;;22.39;49.75;98569.22;7309898;19;130477;-35
2023/04/25 00:05:11;;;;;;;;;;;;;;;22.52;50.03;98558.19;7312421;19;129070;-38
2023/04/25 00:07:36;;;;;;;25.50;1.40;;;;;;;22.51;50.11;98561.78;7313594;19;129992;-33
2023/04/25 00:10:02;;;;;;;51.57;3.00;;;;;;;22.45;50.14;98546.75;7310929;19;129260;-39
2023/04/25 00:12:28;;;;;;;45.83;2.60;;;;;;;22.57;50.03;98555.91;7312379;19;130750;-37
2023/04/25 00:14:56;;;;;;;70.43;3.92;;;;;;;22.60;50.05;98560.78;7309089;19;129161;-40
2023/04/25 00:17:24;;;;;;;56.83;3.35;;;;;;;22.63;50.43;98555.19;7310699;19;129002;-41
2023/04/25 00:19:50;;;;;;;70.35;3.80;;;;;;;22.63;50.60;98557.81;7305901;19;130215;-34
2023/04/25 00:22:16;;;;;;;48.83;2.78;;;;;;;22.61;50.33;98558.00;7308674;19;129325;-29
2023/04/25 00:24:41;;;;;;;73.40;3.77;;;;;;;22.55;48.36;98563.09;7311604;19;129433;-35
2023/04/25 00:27:06;;;;;;;25.90;1.48;;;;;;;22.30;46.95;98559.72;7310513;19;129517;-33
2023/04/25 00:29:32;;;;;;;34.25;1.98;;;;;;;22.21;47.09;98555.53;7310193;19;129915;-36
2023/04/25 00:31:57;;;;;;;59.03;3.47;;;;;;;22.29;46.43;98560.72;7309860;19;131112;-35
2023/04/25 00:34:23;;;;;;;45.00;2.43;;;;;;;22.17;46.60;98554.22;7311067;19;130343;-39
2023/04/25 00:36:48;;;;;;;28.50;1.58;;;;;;;22.28;46.12;98553.03;7311334;19;130967;-39
2023/04/25 00:39:13;;;;;;;40.28;2.15;;;;;;;22.40;46.02;98555.13;7312723;19;129423;-37
2023/04/25 00:41:39;;;;;;;39.13;2.03;;;;;;;22.32;46.25;98552.53;7310131;19;130315;-41
2023/04/25 00:44:06;;;;;;;42.50;2.70;;;;;;;22.39;46.95;98552.66;7312416;19;129646;-34
2023/04/25 00:46:32;;;;;;;31.90;1.70;;;;;;;22.30;48.65;98557.13;7311290;19;129566;-36
2023/04/25 00:48:57;;;;;;;21.35;1.13;;;;;;;22.35;49.12;98553.97;7311333;19;130185;-38
2023/04/25 00:51:25;;;;;;;45.72;2.45;;;;;;;22.38;49.49;98546.59;7310977;19;130408;-42
2023/04/25 00:53:51;;;;;;;36.90;2.03;;;;;;;22.47;50.30;98552.63;7311600;19;128896;-43
2023/04/25 00:56:17;;;;;;;30.23;1.70;;;;;;;22.51;50.17;98551.31;7310713;19;129443;-39
2023/04/25 00:58:43;;;;;;;23.23;1.27;;;;;;;22.48;50.46;98541.16;7312208;19;129540;-37
2023/04/25 01:01:09;;;;;;;37.97;2.03;;;;;;;22.57;50.36;98545.41;7306661;19;130311;-37
2023/04/25 01:03:40;;;;;;;39.03;2.10;;;;;;;22.60;50.53;98542.44;7309122;19;130339;-34
2023/04/25 01:06:07;;;;;;;13.35;0.90;;;;;;;22.61;50.69;98541.47;7311292;19;129148;-36
2023/04/25 01:08:33;;;;;;;18.83;1.17;;;;;;;22.62;50.60;98540.47;7311715;19;130663;-33
2023/04/25 01:11:02;;;;;;;43.35;2.53;;;;;;;22.63;50.60;98544.72;7308020;19;129021;-36
2023/04/25 01:13:27;;;;;;;37.67;1.95;;;;;;;22.49;48.41;98548.03;7311470;19;129843;-37
2023/04/25 01:15:52;;;;;;;22.50;1.37;;;;;;;22.21;47.22;98549.47;7308629;19;130698;-37
2023/04/25 01:18:20;;;;;;;60.75;3.50;;;;;;;22.26;46.75;98555.00;7309596;19;129883;-36
2023/04/25 01:20:46;;;;;;;41.28;2.10;;;;;;;22.25;46.19;98540.25;7308693;19;130426;-34
2023/04/25 01:23:12;;;;;;;14.87;0.87;;;;;;;22.20;46.58;98545.19;7308782;19;130342;-37
2023/04/25 01:25:38;;;;;;;58.22;3.03;;;;;;;22.25;46.12;98550.75;7309781;19;129519;-35
2023/04/25 01:28:03;;;;;;;27.93;1.43;;;;;;;22.26;46.45;98547.16;7311466;19;129504;-33
2023/04/25 01:30:29;;;;;;;50.33;2.57;;;;;;;22.20;46.39;98548.63;7309346;19;129250;-35
2023/04/25 01:32:56;;;;;;;41.03;2.30;;;;;;;22.31;47.88;98552.69;7309485;19;129597;-37
2023/04/25 01:35:23;;;;;;;66.53;4.03;;;;;;;22.29;48.96;98552.03;7309070;19;129050;-34
2023/04/25 01:37:49;;;;;;;13.77;0.82;;;;;;;22.36;49.92;98553.00;7308886;19;129346;-32
2023/04/25 01:40:15;;;;;;;65.03;3.65;;;;;;;22.43;49.82;98553.97;7307861;19;130233;-35
2023/04/25 01:42:42;;;;;;;34.88;1.85;;;;;;;22.48;50.33;98549.00;7315250;19;129404;-35
2023/04/25 01:45:10;;;;;;;38.60;2.25;;;;;;;22.52;49.74;98552.94;7316918;19;129652;-38
2023/04/25 01:47:36;;;;;;;28.98;1.58;;;;;;;22.54;49.91;98545.75;7316816;19;130339;-38
2023/04/25 01:50:02;;;;;;;37.47;2.03;;;;;;;22.59;50.04;98548.69;7316236;19;130341;-35
2023/04/25 01:52:28;;;;;;;28.52;1.52;;;;;;;22.49;49.85;98527.91;7317509;19;129374;-37
2023/04/25 01:54:56;;;;;;;43.95;2.50;;;;;;;22.61;50.42;98546.72;7315346;19;129563;-41
2023/04/25 01:57:21;;;;;;;36.83;2.15;;;;;;;22.60;49.98;98534.59;7316282;19;130276;-36
2023/04/25 01:59:47;;;;;;;30.17;1.58;;;;;;;22.62;50.29;98541.31;7315994;19;130445;-37
2023/04/25 02:02:12;;;;;;;50.90;2.90;;;;;;;22.19;46.94;98539.16;7313723;19;129070;-38
2023/04/25 02:04:38;;;;;;;55.30;3.23;;;;;;;22.24;47.19;98541.25;7315764;19;129593;-35
2023/04/25 02:07:03;;;;;;;28.85;1.70;;;;;;;22.18;46.65;98523.63;7316130;19;129317;-39
2023/04/25 02:09:29;;;;;;;39.10;2.15;;;;;;;22.26;46.75;98536.69;7314746;19;130923;-39
2023/04/25 02:11:54;;;;;;;50.15;2.63;;;;;;;22.21;46.45;98539.81;7315186;19;129071;-39
2023/04/25 02:14:20;;;;;;;33.47;1.85;;;;;;;22.17;46.08;98532.44;7315208;19;130057;-42
2023/04/25 02:16:46;;;;;;;24.38;1.30;;;;;;;22.17;46.12;98521.97;7314699;19;129009;-41
2023/04/25 02:19:11;;;;;;;55.47;2.90;;;;;;;22.25;47.54;98541.09;7315121;19;130628;-41
2023/04/25 02:21:36;;;;;;;31.48;1.77;;;;;;;22.27;48.75;98548.78;7315548;19;129333;-41
2023/04/25 02:24:03;;;;;;;55.65;3.30;;;;;;;22.34;49.93;98541.88;7314241;19;129196;-42
2023/04/25 02:26:28;;;;;;;20.67;1.13;;;;;;;22.38;49.61;98536.13;7315499;19;131590;-39
2023/04/25 02:28:54;;;;;;;46.38;2.47;;;;;;;22.45;49.40;98536.25;7315115;19;129323;-39
2023/04/25 02:31:19;;;;;;;45.22;2.30;;;;;;;22.49;49.91;98542.81;7313682;19;129590;-37
2023/04/25 02:33:44;;;;;;;6.90;0.47;;;;;;;22.40;50.61;98523.69;7315444;19;129331;-33
2023/04/25 02:36:10;;;;;;;35.90;1.95;;;;;;;22.53;49.99;98534.47;7313703;19;130859;-36
2023/04/25 02:38:35;;;;;;;47.65;2.63;;;;;;;22.55;50.41;98536.91;7315900;19;129269;-38
2023/04/25 02:41:00;;;;;;;31.05;1.73;;;;;;;22.56;50.29;98533.31;7311563;19;129057;-35
2023/04/25 02:43:26;;;;;;;33.38;1.88;;;;;;;22.57;50.41;98537.56;7312166;19;128966;-37
2023/04/25 02:45:51;;;;;;;42.53;2.25;;;;;;;22.60;50.97;98539.81;7312799;19;129126;-39
2023/04/25 02:48:16;;;;;;;31.17;1.70;;;;;;;22.59;50.45;98538.22;7315855;19;129613;-38
2023/04/25 02:50:42;;;;;;;20.50;1.17;;;;;;;22.20;47.33;98538.16;7313621;19;128914;-38
2023/04/25 02:53:07;;;;;;;33.88;2.05;;;;;;;22.04;46.88;98540.84;7312949;19;129414;-34
2023/04/25 02:55:33;;;;;;;70.40;3.77;;;;;;;22.19;46.61;98535.72;7313771;19;129420;-37
2023/04/25 02:57:58;;;;;;;34.55;1.80;;;;;;;22.12;46.91;98513.81;7315102;19;130564;-36
2023/04/25 03:00:24;;;;;;;12.33;0.80;;;;;;;22.25;46.23;98530.63;7312959;19;129312;-35
2023/04/25 03:02:49;;;;;;;26.90;1.40;;;;;;;22.17;45.94;98537.69;7312400;19;130152;-33
2023/04/25 03:05:14;;;;;;;45.83;2.38;;;;;;;22.24;46.07;98539.47;7314202;19;129088;-37
2023/04/25 03:07:40;;;;;;;44.40;2.58;;;;;;;22.35;47.15;98540.88;7314612;19;129312;-35
2023/04/25 03:10:08;;;;;;;28.23;1.55;;;;;;;22.25;49.33;98533.25;7314245;19;129819;-36
2023/04/25 03:12:33;;;;;;;30.75;1.58;;;;;;;22.33;49.99;98529.78;7314570;19;129707;-38
2023/04/25 03:14:59;;;;;;;43.28;2.47;;;;;;;22.36;49.92;98532.84;7313205;19;129034;-37
2023/04/25 03:17:24;;;;;;;27.88;1.52;;;;;;;22.41;50.20;98533.16;7313264;19;130163;-35
2023/04/25 03:19:49;;;;;;;26.33;1.35;;;;;;;22.46;50.38;98532.69;7313099;19;129084;-33
2023/04/25 03:22:15;;;;;;;51.90;2.85;;;;;;;22.49;49.98;98527.91;7311691;19;129234;-37
2023/04/25 03:24:40;;;;;;;32.20;1.77;;;;;;;22.53;50.46;98529.22;7315100;19;130144;-36
2023/04/25 03:27:06;;;;;;;68.10;3.42;;;;;;;22.54;49.97;98541.34;7313990;19;130434;-36
2023/04/25 03:29:31;;;;;;;40.63;2.10;;;;;;;22.55;50.35;98526.44;7313676;19;129319;-37
2023/04/25 03:31:56;;;;;;;37.85;2.00;;;;;;;22.55;50.26;98531.66;7314596;19;128843;-33
2023/04/25 03:34:22;;;;;;;59.03;3.53;;;;;;;22.49;50.92;98527.09;7312529;19;130113;-39
2023/04/25 03:36:47;;;;;;;29.60;1.77;;;;;;;22.42;50.72;98531.38;7312769;19;130927;-36
2023/04/25 03:39:13;;;;;;;35.20;1.98;;;;;;;22.47;48.57;98529.06;7312738;19;129467;-34
2023/04/25 03:41:38;;;;;;;30.35;1.58;;;;;;;22.77;47.07;98534.34;7312377;19;129272;-36
2023/04/25 03:44:03;;;;;;;47.88;2.72;;;;;;;22.68;47.90;98516.19;7313298;19;129538;-34
2023/04/25 03:46:29;;;;;;;25.50;1.42;;;;;;;22.70;47.46;98524.72;7312951;19;130524;-35
2023/04/25 03:48:54;;;;;;;27.40;1.83;;;;;;;22.72;47.75;98525.38;7312166;19;129161;-36
2023/04/25 03:51:20;;;;;;;71.22;3.88;;;;;;;22.90;48.35;98531.16;7309659;19;128958;-40
2023/04/25 03:53:45;;;;;;;47.03;2.83;;;;;;;23.17;46.95;98525.41;7309895;19;129716;-31
2023/04/25 03:56:10;;;;;;;28.20;1.55;;;;;;;23.53;46.57;98522.97;7312483;19;129242;-37
2023/04/25 03:58:36;;;;;;;21.83;1.20;;;;;;;23.76;46.54;98532.44;7309757;19;129220;-32
2023/04/25 04:01:07;;;;;;;114.82;6.03;;;;;;;24.05;45.63;98521.16;7307865;19;129646;-36
2023/04/25 04:03:32;;;;;;;31.25;1.75;;;;;;;24.22;45.92;98515.56;7309169;19;131418;-34
2023/04/25 04:05:57;;;;;;;49.10;2.83;;;;;;;24.31;45.54;98514.44;7307799;19;130097;-31
2023/04/25 04:08:23;;;;;;;45.40;2.57;;;;;;;24.29;45.95;98521.72;7308308;19;129079;-37
2023/04/25 04:10:48;;;;;;;48.05;2.88;;;;;;;24.30;45.63;98518.06;7307205;19;129652;-37
2023/04/25 04:13:13;;;;;;;34.17;1.97;;;;;;;24.29;46.34;98526.97;7311588;19;129318;-35
2023/04/25 04:15:39;;;;;;;37.83;2.40;;;;;;;24.16;45.87;98516.25;7300329;19;130536;-65
2023/04/25 04:18:05;;;;;;;51.57;3.03;;;;;;;23.98;46.21;98523.69;7306084;19;129136;-64
2023/04/25 04:20:31;;;;;;;100.38;6.25;;;;;;;24.02;45.96;98530.22;7306941;19;131442;-65
2023/04/25 04:22:56;;;;;;;38.67;2.33;;;;;;;24.21;46.39;98534.91;7307872;19;129559;-64
2023/04/25 04:25:22;;;;;;;58.03;3.47;;;;;;;24.69;45.58;98530.09;7307721;19;131913;-68
2023/04/25 04:27:47;;;;;;;49.53;2.77;;;;;;;24.87;44.58;98527.88;7306846;19;129380;-66
2023/04/25 04:30:12;;;;;;;28.92;1.73;;;;;;;25.06;44.14;98530.69;7311550;19;129539;-67
2023/04/25 04:32:38;;;;;;;33.00;2.13;;;;;;;25.11;44.05;98532.75;7310768;19;129061;-67
2023/04/25 04:35:04;;;;;;;26.57;1.67;;;;;;;24.97;44.30;98536.25;7310275;19;129984;-67
2023/04/25 04:37:29;;;;;;;60.90;3.53;;;;;;;24.81;45.14;98516.25;7309232;19;129242;-65
2023/04/25 04:39:55;;;;;;;54.75;3.50;;;;;;;24.83;44.92;98545.00;7309126;19;130014;-67
2023/04/25 04:42:21;;;;;;;15.47;1.13;;;;;;;24.75;45.62;98539.84;7310687;19;130109;-66
2023/04/25 04:44:46;;;;;;;35.90;2.13;;;;;;;24.63;45.86;98544.75;7310848;19;129694;-66
2023/04/25 04:47:13;;;;;;;44.53;2.53;;;;;;;24.63;46.14;98541.28;7310349;19;128941;-66
2023/04/25 04:49:39;;;;;;;46.10;2.72;;;;;;;24.51;46.23;98540.16;7309501;19;129152;-66
2023/04/25 04:52:05;;;;;;;28.87;1.97;;;;;;;24.31;45.28;98548.59;7308355;19;129822;-66
2023/04/25 04:54:30;;;;;;;50.50;3.37;;;;;;;24.08;45.28;98545.25;7310201;19;129738;-66
2023/04/25 04:56:56;;;;;;;45.93;2.77;;;;;;;24.29;45.83;98545.34;7310522;19;129499;-65
2023/04/25 04:59:21;;;;;;;27.97;1.90;;;;;;;24.42;45.47;98548.16;7312291;19;130276;-65
2023/04/25 05:01:46;;;;;;;63.73;4.37;;;;;;;24.40;45.62;98558.03;7306247;19;130184;-66
2023/04/25 05:04:12;;;;;;;31.75;2.20;;;;;;;24.40;45.67;98558.03;7309641;19;129394;-66
2023/04/25 05:06:37;;;;;;;30.15;2.03;;;;;;;24.38;45.99;98560.00;7306513;19;129138;-66
2023/04/25 05:09:03;;;;;;;55.17;3.60;;;;;;;24.33;45.85;98564.16;7310463;19;129297;-66
2023/04/25 05:11:29;;;;;;;49.60;3.33;;;;;;;24.23;46.45;98555.75;7305132;19;131061;-65
2023/04/25 05:13:54;;;;;;;58.95;3.85;;;;;;;24.31;45.99;98559.09;7307187;19;131242;-65
2023/04/25 05:16:20;;;;;;;123.30;8.23;;;;;;;24.32;46.11;98563.38;7307917;19;129791;-67
2023/04/25 05:18:47;;;;;;;29.03;2.03;;;;;;;24.27;46.92;98560.47;7315978;19;128980;-67
2023/04/25 05:21:12;;;;;;;23.98;1.65;;;;;;;24.31;46.70;98566.97;7316900;19;129333;-67
2023/04/25 05:23:37;;;;;;;45.57;2.97;;;;;;;24.02;46.50;98556.47;7316248;19;129562;-67
2023/04/25 05:26:03;;;;;;;30.80;2.10;;;;;;;23.90;46.93;98563.13;7318306;19;129830;-65
2023/04/25 05:28:28;;;;;;;35.43;2.47;;;;;;;24.08;46.82;98571.50;7317077;19;129275;-67
2023/04/25 05:30:54;;;;;;;33.73;2.20;;;;;;;24.28;46.20;98556.84;7317774;19;129451;-66
2023/04/25 05:33:19;;;;;;;73.53;5.00;;;;;;;24.34;46.13;98563.19;7314047;19;129211;-66
2023/04/25 05:35:45;;;;;;;16.05;1.20;;;;;;;24.35;46.49;98559.56;7317690;19;129501;-67
2023/04/25 05:38:10;;;;;;;31.63;2.10;;;;;;;24.35;46.39;98552.50;7316856;19;129469;-67
2023/04/25 05:40:36;;;;;;;17.27;1.30;;;;;;;24.29;46.31;98553.22;7317721;19;129104;-66
2023/04/25 05:43:01;;;;;;;33.10;2.17;;;;;;;24.28;46.92;98551.59;7316401;19;129754;-66
2023/04/25 05:45:26;;;;;;;39.72;3.00;;;;;;;24.28;46.99;98556.84;7318032;19;129380;-67
2023/04/25 05:47:52;;;;;;;19.83;1.50;;;;;;;24.33;46.84;98549.22;7316133;19;128987;-66
2023/04/25 05:50:17;;;;;;;38.27;2.47;;;;;;;24.34;46.54;98558.75;7318595;19;129866;-65
2023/04/25 05:52:42;;;;;;;36.00;2.43;;;;;;;24.17;46.96;98554.69;7316226;19;129304;-65
2023/04/25 05:55:09;;;;;;;32.77;2.40;;;;;;;24.04;46.83;98562.38;7311330;19;130118;-66
2023/04/25 05:57:34;;;;;;;27.35;1.95;;;;;;;24.19;47.17;98550.06;7314268;19;129407;-66
2023/04/25 06:00:00;;;;;;;54.53;3.40;;;;;;;24.33;46.64;98559.75;7317582;19;129893;-66
2023/04/25 06:02:26;;;;;;;33.60;2.60;;;;;;;24.46;46.28;98556.47;7314777;19;129078;-67
2023/04/25 06:04:52;;;;;;;32.23;2.23;;;;;;;24.45;46.24;98557.47;7314685;19;129498;-67
2023/04/25 06:07:18;;;;;;;11.37;1.40;;;;;;;24.44;46.69;98561.09;7315520;19;129963;-66
2023/04/25 06:09:44;;;;;;;39.90;2.58;;;;;;;24.46;46.49;98559.91;7315706;19;129086;-65
2023/04/25 06:12:09;;;;;;;15.50;1.47;;;;;;;24.48;46.46;98565.78;7314785;19;129241;-64
2023/04/25 06:14:35;;;;;;;28.80;2.10;;;;;;;24.48;46.72;98568.44;7314864;19;128837;-64
2023/04/25 06:17:06;;;;;;;31.03;2.27;;;;;;;24.48;46.93;98572.06;7314558;19;129268;-64
2023/04/25 06:19:35;;;;;;;54.83;3.40;;;;;;;24.47;46.48;98560.72;7315911;19;129127;-64
2023/04/25 06:22:01;;;;;;;37.95;2.50;;;;;;;24.53;47.09;98569.72;7314929;19;129479;-64
2023/04/25 06:24:26;;;;;;;22.97;2.00;;;;;;;24.28;46.05;98572.59;7315339;19;128849;-65
2023/04/25 06:26:52;;;;;;;24.20;1.80;;;;;;;24.10;46.76;98574.78;7314905;19;129535;-64
2023/04/25 06:29:18;;;;;;;43.73;2.97;;;;;;;24.37;46.44;98566.28;7313446;19;128973;-64
2023/04/25 06:31:43;;;;;;;31.23;2.13;;;;;;;24.59;46.05;98567.16;7315379;19;129066;-64
2023/04/25 06:34:08;;;;;;;34.03;2.57;;;;;;;24.63;46.58;98570.22;7315017;19;128938;-64
2023/04/25 06:36:34;;;;;;;28.35;2.17;;;;;;;24.51;46.52;98548.84;7314915;19;129916;-64
2023/04/25 06:38:59;;;;;;;42.63;2.80;;;;;;;24.61;45.97;98567.75;7315623;19;129063;-66
2023/04/25 06:41:25;;;;;;;42.03;2.83;;;;;;;24.62;46.75;98573.84;7315734;19;129180;-64
2023/04/25 06:43:50;;;;;;;32.60;2.47;;;;;;;24.69;45.83;98570.34;7311421;19;129665;-63
2023/04/25 06:46:15;;;;;;;32.80;2.20;;;;;;;24.63;46.11;98562.31;7312366;19;129218;-62
2023/04/25 06:48:41;;;;;;;74.07;4.57;;;;;;;24.69;46.34;98565.09;7315657;19;129572;-63
2023/04/25 06:51:06;;;;;;;27.97;2.00;;;;;;;24.67;46.05;98559.16;7315085;19;129980;-63
2023/04/25 06:53:35;;;;;;;32.03;2.20;;;;;;;24.58;46.44;98562.09;7312862;19;129141;-62
2023/04/25 06:56:00;;;;;;;37.47;2.58;;;;;;;24.28;46.81;98571.78;7312434;19;129807;-63
2023/04/25 06:58:26;;;;;;;50.07;3.33;;;;;;;24.38;47.03;98567.88;7313703;19;129519;-62
2023/04/25 07:00:51;;;;;;;23.00;1.83;;;;;;;24.67;46.30;98569.69;7313521;19;129756;-64
2023/04/25 07:03:17;;;;;;;34.53;2.50;;;;;;;24.70;46.12;98565.88;7307899;19;129191;-64
2023/04/25 07:05:42;;;;;;;57.92;3.72;;;;;;;24.71;45.88;98572.78;7311841;19;128989;-64
2023/04/25 07:08:07;;;;;;;39.35;2.60;;;;;;;24.80;46.02;98567.22;7314735;19;130674;-64
2023/04/25 07:10:33;;;;;;;34.97;2.57;;;;;;;24.82;45.84;98573.13;7311847;19;129950;-64
2023/04/25 07:12:58;;;;;;;23.93;2.03;;;;;;;24.81;45.67;98578.56;7311896;19;128919;-64
2023/04/25 07:15:23;;;;;;;61.23;4.13;;;;;;;24.83;46.10;98577.38;7311190;19;128875;-65
2023/04/25 07:17:49;;;;;;;32.73;2.30;;;;;;;24.78;46.62;98571.03;7315388;19;129386;-66
2023/04/25 07:20:14;;;;;;;21.63;1.53;;;;;;;24.86;46.38;98581.47;7314045;19;129318;-68
2023/04/25 07:22:39;;;;;;;28.37;2.03;;;;;;;24.76;46.72;98571.22;7311069;19;128849;-66
2023/04/25 07:25:05;;;;;;;41.93;2.90;;;;;;;24.61;46.00;98582.75;7310943;19;129156;-64
2023/04/25 07:27:31;;;;;;;36.57;2.70;;;;;;;24.47;46.75;98587.00;7314410;19;129974;-66
2023/04/25 07:29:57;;;;;;;28.97;2.13;;;;;;;24.53;47.09;98565.25;7311498;19;132039;-65
2023/04/25 07:32:22;;;;;;;36.65;2.65;;;;;;;24.78;46.30;98578.91;7312779;19;128893;-65
2023/04/25 07:34:48;;;;;;;51.60;3.25;;;;;;;24.86;46.22;98576.19;7312518;19;129579;-65
2023/04/25 07:37:14;;;;;;;21.73;1.53;;;;;;;24.93;46.02;98587.59;7316629;19;129251;-63
2023/04/25 07:39:39;;;;;;;28.87;2.13;;;;;;;24.97;46.04;98588.84;7312660;19;129246;-63
2023/04/25 07:42:07;;;;;;;35.20;2.50;;;;;;;24.83;46.35;98566.03;7312167;19;129261;-63
2023/04/25 07:44:38;;;;;;;46.47;3.10;;;;;;;24.92;46.41;98576.28;7312812;19;129870;-63
2023/04/25 07:47:06;;;;;;;39.20;2.90;;;;;;;24.95;46.07;98581.16;7312743;19;129791;-62
2023/04/25 07:49:32;;;;;;;22.67;1.95;;;;;;;24.95;45.93;98581.16;7313653;19;129206;-63
2023/04/25 07:51:58;;;;;;;41.93;2.57;;;;;;;24.97;45.84;98584.44;7311970;19;129713;-63
2023/04/25 07:54:23;;;;;;;56.93;3.27;;;;;;;24.93;45.66;98584.97;7310512;19;129489;-63
2023/04/25 07:56:48;;;;;;;30.87;2.00;;;;;;;24.72;46.16;98590.19;7312427;19;130115;-63
2023/04/25 07:59:14;;;;;;;14.02;1.17;;;;;;;24.60;46.05;98581.09;7312593;19;129595;-64
2023/04/25 08:01:39;;;;;;;51.43;3.17;;;;;;;24.94;46.34;98583.97;7312097;19;130415;-63
2023/04/25 08:04:05;;;;;;;74.83;4.40;;;;;;;24.97;45.69;98594.13;7309010;19;128944;-63
2023/04/25 08:06:31;;;;;;;36.03;2.43;;;;;;;25.10;45.89;98589.00;7311386;19;129594;-63
2023/04/25 08:08:56;;;;;;;34.53;2.27;;;;;;;25.05;45.82;98594.00;7311637;19;129631;-63
2023/04/25 08:11:21;;;;;;;46.30;2.93;;;;;;;25.09;45.53;98592.63;7312196;19;129699;-63
2023/04/25 08:13:47;;;;;;;52.47;3.13;;;;;;;25.17;45.44;98600.41;7311767;19;129042;-63
2023/04/25 08:16:12;;;;;;;26.47;1.80;;;;;;;25.07;45.72;98600.69;7308875;19;131798;-64
2023/04/25 08:18:37;;;;;;;33.73;2.37;;;;;;;25.07;45.98;98599.91;7311881;19;130812;-65
2023/04/25 08:21:03;;;;;;;46.37;2.87;;;;;;;25.08;46.18;98607.59;7311925;19;129080;-64
2023/04/25 08:23:29;;;;;;;44.03;2.67;;;;;;;25.10;45.93;98604.78;7309439;19;128832;-63
2023/04/25 08:25:54;;;;;;;27.50;1.77;;;;;;;24.93;45.89;98604.19;7310342;19;130809;-63
2023/04/25 08:28:19;;;;;;;36.97;2.30;;;;;;;24.79;45.88;98604.22;7310271;19;132763;-64
2023/04/25 08:30:44;;;;;;;43.83;2.73;;;;;;;24.93;46.25;98608.63;7311772;19;129918;-64
2023/04/25 08:33:10;;;;;;;31.77;2.03;;;;;;;25.12;46.35;98623.81;7310248;19;131142;-63
2023/04/25 08:35:36;;;;;;;16.23;1.40;;;;;;;25.20;45.80;98615.81;7310948;19;129874;-63
2023/04/25 08:38:01;;;;;;;32.70;2.10;;;;;;;25.19;45.48;98620.25;7313216;19;129104;-65
2023/04/25 08:40:29;;;;;;;46.93;2.80;;;;;;;25.10;45.66;98604.78;7312620;19;128958;-65
2023/04/25 08:42:57;;;;;;;18.50;1.45;;;;;;;25.23;45.43;98620.69;7310068;19;129711;-64
2023/04/25 08:45:22;;;;;;;101.70;6.45;;;;;;;25.23;45.60;98621.53;7309122;19;130095;-65
2023/04/25 08:47:51;;;;;;;32.67;2.00;;;;;;;25.21;46.18;98613.00;7311786;19;129305;-65
2023/04/25 08:50:17;;;;;;;23.38;1.55;;;;;;;25.24;45.89;98625.78;7311037;19;128877;-65
2023/04/25 08:52:47;;;;;;;26.43;1.80;;;;;;;25.19;45.74;98625.50;7315092;19;129369;-65
2023/04/25 08:55:14;;;;;;;48.90;3.13;;;;;;;25.17;46.70;98631.97;7317047;19;130067;-65
2023/04/25 08:57:42;;;;;;;28.15;1.98;;;;;;;24.86;46.55;98620.91;7317441;19;130050;-65
2023/04/25 09:00:09;;;;;;;31.90;2.00;;;;;;;24.94;46.43;98631.31;7318022;19;129178;-64
2023/04/25 09:02:35;;;;;;;46.05;2.60;;;;;;;25.18;45.58;98633.59;7317464;19;130253;-64
2023/04/25 09:05:04;;;;;;;37.70;2.43;;;;;;;25.27;46.08;98633.28;7316849;19;129069;-65
2023/04/25 09:07:29;;;;;;;52.60;3.22;;;;;;;25.19;45.59;98632.59;7316230;19;129661;-65
2023/04/25 09:09:55;;;;;;;42.10;2.53;;;;;;;25.33;46.14;98644.91;7317597;19;129250;-64
2023/04/25 09:12:21;;;;;;;59.13;3.37;;;;;;;25.27;45.94;98653.53;7316565;19;129530;-64
2023/04/25 09:15:06;;;;;;;24.33;1.70;;;;;;;25.33;45.93;98643.09;7316799;19;128995;-65
2023/04/25 09:17:31;;;;;;;39.38;2.58;;;;;;;25.35;45.87;98650.81;7316163;19;129865;-65
2023/04/25 09:20:14;;;;;;;43.40;2.63;;;;;;;25.41;45.79;98655.31;7317357;19;129285;-65
2023/04/25 09:22:40;;;;;;;48.47;2.95;;;;;;;25.36;45.57;98653.25;7315282;19;128888;-65
2023/04/25 09:25:11;;;;;;;52.17;3.13;;;;;;;25.27;46.27;98656.19;7316192;19;129633;-64
2023/04/25 09:27:48;;;;;;;30.05;2.00;;;;;;;24.98;45.92;98664.09;7317286;19;129300;-64
2023/04/25 09:30:16;;;;;;;31.13;2.03;;;;;;;25.11;46.41;98674.78;7317097;19;128871;-64
2023/04/25 09:32:43;;;;;;;34.97;2.17;;;;;;;25.34;45.41;98670.19;7316060;19;128980;-65
2023/04/25 09:35:09;;;;;;;51.53;3.22;;;;;;;25.39;45.22;98678.38;7315285;19;129286;-65
2023/04/25 09:37:35;;;;;;;31.33;2.13;;;;;;;25.43;45.89;98674.38;7317254;19;129775;-65
2023/04/25 09:40:05;;;;;;;32.40;2.10;;;;;;;25.49;45.62;98676.25;7317290;19;129160;-64
2023/04/25 09:42:31;;;;;;;39.58;2.58;;;;;;;25.53;45.93;98686.25;7316079;19;129316;-64
2023/04/25 09:44:58;;;;;;;32.65;1.95;;;;;;;25.46;45.91;98682.72;7316015;19;130474;-65
2023/04/25 09:47:25;;;;;;;51.92;3.10;;;;;;;25.47;45.78;98686.97;7316239;19;131424;-67
2023/04/25 09:49:51;;;;;;;34.42;2.17;;;;;;;25.36;46.07;98681.38;7317137;19;129490;-66
2023/04/25 09:52:22;;;;;;;30.63;2.17;;;;;;;25.32;45.94;98677.47;7316020;19;129693;-65
2023/04/25 09:54:48;;;;;;;25.73;1.67;;;;;;;25.38;45.94;98682.03;7315864;19;129394;-65
2023/04/25 09:57:20;;;;;;;45.22;2.55;;;;;;;25.05;45.51;98686.06;7314609;19;129653;-66
2023/04/25 09:59:51;;;;;;;41.70;2.35;;;;;;;24.96;46.48;98684.50;7316982;19;129464;-65
2023/04/25 10:02:20;;;;;;;26.80;1.95;;;;;;;25.12;46.39;98676.44;7314977;19;129324;-66
2023/04/25 10:04:48;;;;;;;36.42;2.33;;;;;;;25.36;45.69;98697.19;7315481;19;129699;-66
2023/04/25 10:07:14;;;;;;;37.15;2.20;;;;;;;25.34;46.44;98680.72;7314312;19;129080;-65
2023/04/25 10:09:40;;;;;;;28.57;1.87;;;;;;;25.39;45.75;98689.72;7315896;19;129662;-66
2023/04/25 10:12:07;;;;;;;29.77;1.97;;;;;;;25.42;45.81;98694.63;7315122;19;129256;-65
2023/04/25 10:14:32;;;;;;;51.83;3.20;;;;;;;25.46;45.80;98698.53;7314830;19;129249;-65
2023/04/25 10:16:59;;;;;;;46.23;2.93;;;;;;;25.47;45.82;98696.69;7314850;19;129526;-65
2023/04/25 10:19:26;;;;;;;47.75;2.85;;;;;;;25.47;45.60;98701.94;7315982;19;129489;-65
2023/04/25 10:22:09;;;;;;;28.25;1.90;;;;;;;25.43;45.82;98701.53;7313174;19;129069;-66
2023/04/25 10:24:37;;;;;;;19.95;1.50;;;;;;;25.50;45.74;98712.13;7313174;19;130788;-65
2023/04/25 10:27:03;;;;;;;33.45;2.10;;;;;;;25.24;45.58;98707.34;7314353;19;129412;-65
2023/04/25 10:29:29;;;;;;;72.68;4.57;;;;;;;25.18;45.56;98717.78;7315932;19;129049;-65
2023/04/25 10:31:55;;;;;;;31.50;1.90;;;;;;;25.34;45.92;98712.28;7315135;19;128804;-65
2023/04/25 10:34:25;;;;;;;42.07;2.53;;;;;;;25.51;45.41;98713.75;7314758;19;129065;-65
2023/04/25 10:36:52;;;;;;;25.00;1.75;;;;;;;25.56;45.76;98706.09;7314002;19;129289;-65
2023/04/25 10:39:26;;;;;;;40.65;2.45;;;;;;;25.63;45.85;98714.91;7316840;19;129177;-65
2023/04/25 10:41:57;;;;;;;54.50;3.05;;;;;;;25.66;45.51;98706.63;7313750;19;129093;-66
2023/04/25 10:44:23;;;;;;;37.58;2.25;;;;;;;25.61;45.35;98711.63;7312260;19;128974;-65
2023/04/25 10:46:48;;;;;;;24.83;1.60;;;;;;;25.63;45.42;98720.16;7314285;19;129475;-66
2023/04/25 10:49:36;;;;;;;7.50;0.83;;;;;;;25.64;45.23;98713.88;7315238;19;128817;-65
2023/04/25 10:52:11;;;;;;;;;;;;;;;25.62;45.19;98721.97;7313992;19;129561;-64
2023/04/25 10:54:48;;;;;;;50.78;2.95;;;;;;;25.66;45.38;98722.41;7314475;19;129201;-64
2023/04/25 10:57:48;;;;;;;57.97;3.20;;;;;;;25.33;45.57;98721.19;7313241;19;130969;-64
2023/04/25 11:00:16;;;;;;;11.93;1.00;;;;;;;25.40;45.76;98712.41;7312044;19;129169;-64
2023/04/25 11:02:45;;;;;;;56.40;3.40;;;;;;;25.66;45.40;98725.03;7312338;19;129775;-64
2023/04/25 11:05:19;;;;;;;24.02;1.98;;;;;;;25.73;45.56;98739.09;7313753;19;129475;-64
2023/04/25 11:07:57;;;;;;;19.05;1.40;;;;;;;25.72;45.39;98737.44;7315379;19;129068;-64
2023/04/25 11:10:32;;;;;;;31.02;1.92;;;;;;;25.80;45.40;98736.53;7315032;19;129153;-64
2023/04/25 11:12:59;;;;;;;34.33;2.13;;;;;;;25.80;45.01;98739.97;7311109;19;129548;-65